Time;durP1;ratioP1;P1;durP2;ratioP2;P2;SDS_P1;SDS_P2;PMS_P1;PMS_P2;Temp;Humidity;BMP_temperature;BMP_pressure;BME280_temperature;BME280_humidity;BME280_pressure;Samples;Min_cycle;Max_cycle;Signal;HPM_P1;HPM_P2
2022/06/17 00:00:58;;;;;;;3.20;2.83;;;;;;;14.63;90.30;96776.11;1721193;83;21063;-82
2022/06/17 00:03:25;;;;;;;6.40;3.72;;;;;;;14.62;90.22;96779.73;1706488;83;20956;-82
2022/06/17 00:05:52;;;;;;;3.75;2.95;;;;;;;14.62;90.06;96779.23;1711149;83;21064;-82
2022/06/17 00:08:23;;;;;;;4.08;2.45;;;;;;;14.58;89.85;96785.06;1681130;84;21414;-82
2022/06/17 00:10:48;;;;;;;5.08;2.58;;;;;;;14.53;89.76;96782.23;1722320;83;20991;-82
2022/06/17 00:13:17;;;;;;;3.72;2.72;;;;;;;14.49;89.80;96787.06;1720614;83;20999;-82
2022/06/17 00:15:44;;;;;;;3.17;2.70;;;;;;;14.48;89.93;96796.38;1709344;82;21008;-83
2022/06/17 00:18:10;;;;;;;3.08;2.30;;;;;;;14.45;89.95;96799.39;1714398;83;21026;-82
2022/06/17 00:20:36;;;;;;;3.87;2.33;;;;;;;14.45;90.08;96799.39;1719782;83;21043;-82
2022/06/17 00:23:02;;;;;;;4.55;2.52;;;;;;;14.41;90.09;96798.45;1722746;82;20968;-83
2022/06/17 00:25:34;;;;;;;4.45;2.67;;;;;;;14.39;90.27;96795.23;1705033;83;20964;-82
2022/06/17 00:28:00;;;;;;;6.55;2.80;;;;;;;14.39;90.28;96795.23;1718514;82;21025;-83
2022/06/17 00:30:30;;;;;;;4.45;2.58;;;;;;;14.39;90.26;96794.42;1720311;82;21000;-82
2022/06/17 00:32:59;;;;;;;3.35;2.27;;;;;;;14.38;90.42;96788.89;1720153;83;20989;-82
2022/06/17 00:35:30;;;;;;;2.92;2.45;;;;;;;14.39;90.61;96788.69;1723841;82;21315;-82
2022/06/17 00:37:56;;;;;;;3.55;2.30;;;;;;;14.44;90.64;96795.97;1724290;82;20988;-83
2022/06/17 00:40:24;;;;;;;3.95;2.62;;;;;;;14.46;90.52;96791.85;1726145;82;21375;-83
2022/06/17 00:42:50;;;;;;;3.92;2.35;;;;;;;14.46;90.46;96784.01;1725782;82;20979;-82
2022/06/17 00:45:30;;;;;;;3.08;2.65;;;;;;;14.48;90.46;96787.23;1723798;82;21514;-82
2022/06/17 00:48:12;;;;;;;4.25;2.58;;;;;;;14.50;90.34;96786.56;1720682;83;21089;-82
2022/06/17 00:50:58;;;;;;;3.98;2.58;;;;;;;14.50;90.34;96797.83;1684084;84;21382;-82
2022/06/17 00:53:28;;;;;;;4.42;3.00;;;;;;;14.47;90.22;96800.80;1729893;82;21084;-82
2022/06/17 00:56:08;;;;;;;5.70;3.50;;;;;;;14.47;90.44;96807.34;1704207;83;21039;-82
2022/06/17 00:59:06;;;;;;;5.08;3.05;;;;;;;14.46;90.44;96807.04;1725288;83;21027;-82
2022/06/17 01:01:43;;;;;;;4.28;2.72;;;;;;;14.43;90.58;96812.63;1704927;83;20968;-82
2022/06/17 01:04:10;;;;;;;4.20;3.35;;;;;;;14.39;90.84;96813.53;1704021;84;21471;-82
2022/06/17 01:06:41;;;;;;;3.55;3.22;;;;;;;14.37;90.93;96818.15;1674512;83;21019;-82
2022/06/17 01:11:41;;;;;;;3.42;2.70;;;;;;;14.39;91.08;96820.56;1650563;84;21059;-82
2022/06/17 01:14:10;;;;;;;4.90;2.95;;;;;;;14.28;91.08;96798.89;1680367;83;20952;-83
2022/06/17 01:16:39;;;;;;;4.83;3.70;;;;;;;14.39;91.01;96827.91;1720733;83;20961;-82
2022/06/17 01:19:31;;;;;;;4.40;3.55;;;;;;;14.39;91.07;96821.88;1708324;82;21007;-83
2022/06/17 01:22:28;;;;;;;4.40;3.40;;;;;;;14.40;91.03;96820.88;1681509;83;21043;-82
2022/06/17 01:25:22;;;;;;;4.60;3.20;;;;;;;14.39;91.23;96822.68;1714088;82;20995;-82
2022/06/17 01:27:51;;;;;;;6.75;3.83;;;;;;;14.39;91.31;96819.26;1713098;82;21026;-82
2022/06/17 01:30:20;;;;;;;7.15;3.95;;;;;;;14.38;91.35;96824.98;1721859;81;20944;-82
2022/06/17 01:33:01;;;;;;;4.37;3.87;;;;;;;14.37;91.51;96822.57;1704123;82;21001;-82
2022/06/17 01:35:34;;;;;;;6.05;4.00;;;;;;;14.37;91.58;96823.37;1712203;82;21021;-82
2022/06/17 01:37:59;;;;;;;8.35;5.28;;;;;;;14.35;91.77;96823.27;1688108;82;20994;-82
2022/06/17 01:40:28;;;;;;;6.83;5.10;;;;;;;14.34;92.25;96829.50;1675563;84;21033;-82
2022/06/17 01:42:53;;;;;;;5.58;4.28;;;;;;;14.34;92.28;96829.50;1732392;82;21477;-82
2022/06/17 01:45:19;;;;;;;7.30;4.80;;;;;;;14.35;92.23;96835.03;1694915;84;21066;-82
2022/06/17 01:47:45;;;;;;;8.13;4.95;;;;;;;14.36;92.18;96829.61;1724446;82;21023;-82
2022/06/17 01:50:19;;;;;;;4.83;3.87;;;;;;;14.39;92.25;96837.56;1704254;83;21008;-82
2022/06/17 01:53:01;;;;;;;6.12;4.80;;;;;;;14.40;92.10;96832.63;1715127;83;21403;-82
2022/06/17 01:55:35;;;;;;;5.75;4.50;;;;;;;14.42;92.11;96835.36;1702255;83;21067;-82
2022/06/17 01:58:18;;;;;;;6.67;4.05;;;;;;;14.42;91.91;96834.55;1704762;82;21366;-83
2022/06/17 02:00:44;;;;;;;6.85;4.92;;;;;;;14.40;92.02;96832.13;1710506;83;21385;-82
2022/06/17 02:03:23;;;;;;;7.42;5.05;;;;;;;14.40;91.91;96837.36;1702999;83;20996;-82
2022/06/17 02:05:55;;;;;;;6.95;4.80;;;;;;;14.38;91.98;96836.75;1712189;83;21071;-82
2022/06/17 02:08:21;;;;;;;6.40;4.78;;;;;;;14.36;92.12;96836.14;1704449;83;21031;-81
2022/06/17 02:10:47;;;;;;;7.05;5.92;;;;;;;14.36;92.38;96833.53;1712142;83;21044;-83
2022/06/17 02:13:13;;;;;;;7.83;6.20;;;;;;;14.43;92.60;96846.63;1717384;83;21345;-82
2022/06/17 02:15:38;;;;;;;6.62;5.10;;;;;;;14.50;92.94;96840.97;1719238;83;21076;-82
2022/06/17 02:18:07;;;;;;;7.53;5.28;;;;;;;14.55;92.88;96843.80;1703975;83;21031;-82
2022/06/17 02:20:33;;;;;;;5.78;4.37;;;;;;;14.60;92.94;96843.20;1705831;84;21106;-83
2022/06/17 02:22:59;;;;;;;6.47;4.30;;;;;;;14.63;92.80;96845.42;1705085;82;21043;-82
2022/06/17 02:25:29;;;;;;;6.83;4.90;;;;;;;14.67;92.59;96845.36;1704631;83;21390;-81
2022/06/17 02:27:57;;;;;;;6.42;4.60;;;;;;;14.69;92.49;96845.97;1704213;83;21006;-82
2022/06/17 02:30:22;;;;;;;6.22;4.53;;;;;;;14.71;92.40;96846.57;1705059;84;21016;-83
2022/06/17 02:32:49;;;;;;;6.20;4.60;;;;;;;14.76;92.34;96855.94;1705428;82;20983;-82
2022/06/17 02:35:35;;;;;;;6.05;4.75;;;;;;;14.77;92.04;96856.23;1705214;83;21290;-82
2022/06/17 02:38:00;;;;;;;7.35;4.17;;;;;;;14.75;91.93;96861.36;1705405;83;20959;-82
2022/06/17 02:40:37;;;;;;;4.83;4.22;;;;;;;14.74;91.73;96865.79;1678929;84;21023;-82
2022/06/17 02:43:14;;;;;;;8.13;4.25;;;;;;;14.73;91.63;96865.48;1704222;82;21035;-82
2022/06/17 02:45:44;;;;;;;6.20;4.25;;;;;;;14.73;91.47;96875.95;1709896;82;20955;-82
2022/06/17 02:48:25;;;;;;;6.50;4.75;;;;;;;14.65;91.61;96880.06;1674968;82;21465;-82
2022/06/17 02:50:52;;;;;;;6.47;5.87;;;;;;;14.63;91.71;96882.03;1703892;82;21055;-82
2022/06/17 02:53:21;;;;;;;10.32;6.85;;;;;;;14.67;92.00;96884.59;1704765;83;20980;-82
2022/06/17 02:55:46;;;;;;;8.55;7.70;;;;;;;14.71;92.18;96885.30;1731727;82;20969;-82
2022/06/17 02:58:34;;;;;;;9.30;8.40;;;;;;;14.68;92.12;96877.85;1733509;82;21363;-83
2022/06/17 03:01:00;;;;;;;9.93;8.08;;;;;;;14.83;92.21;96894.72;1723118;82;20941;-83
2022/06/17 03:03:26;;;;;;;11.48;9.03;;;;;;;14.93;92.08;96882.05;1706210;82;21002;-82
2022/06/17 03:05:51;;;;;;;9.75;8.68;;;;;;;14.98;91.84;96884.91;1733087;83;20980;-83
2022/06/17 03:08:29;;;;;;;12.73;9.03;;;;;;;14.96;91.43;96892.12;1715026;83;20952;-83
2022/06/17 03:10:57;;;;;;;10.90;9.53;;;;;;;14.97;91.43;96887.72;1707318;82;20967;-82
2022/06/17 03:13:31;;;;;;;11.20;9.60;;;;;;;15.01;91.32;96893.66;1704407;83;20979;-82
2022/06/17 03:15:59;;;;;;;9.30;8.30;;;;;;;15.01;90.87;96893.66;1671959;84;21082;-82
2022/06/17 03:18:25;;;;;;;12.98;9.13;;;;;;;15.04;90.90;96892.97;1704221;83;20987;-82
2022/06/17 03:20:51;;;;;;;9.55;8.50;;;;;;;15.04;90.77;96887.23;1707667;82;21050;-82
2022/06/17 03:23:22;;;;;;;10.20;8.48;;;;;;;15.06;90.56;96895.69;1685337;84;20987;-83
2022/06/17 03:26:01;;;;;;;9.78;8.80;;;;;;;15.07;90.62;96896.48;1704500;82;21074;-82
2022/06/17 03:28:44;;;;;;;10.28;9.30;;;;;;;15.11;90.87;96900.31;1704088;83;20991;-83
2022/06/17 03:31:33;;;;;;;11.12;9.53;;;;;;;15.14;90.76;96910.42;1708703;82;21014;-83
2022/06/17 03:34:10;;;;;;;10.63;9.53;;;;;;;15.09;90.71;96916.73;1712374;82;20950;-82
2022/06/17 03:37:00;;;;;;;11.08;10.08;;;;;;;15.05;90.33;96915.52;1713654;82;21279;-84
2022/06/17 03:39:42;;;;;;;11.10;9.60;;;;;;;15.05;90.25;96924.17;1719971;83;20947;-83
2022/06/17 03:42:31;;;;;;;11.80;9.85;;;;;;;15.11;90.45;96919.95;1676900;84;21055;-83
2022/06/17 03:45:12;;;;;;;12.05;9.50;;;;;;;15.14;90.30;96925.62;1725621;83;20987;-83
2022/06/17 03:48:03;;;;;;;12.40;9.60;;;;;;;15.11;89.86;96937.77;1717970;83;21343;-84
2022/06/17 03:50:34;;;;;;;12.88;9.78;;;;;;;15.06;89.68;96938.87;1705488;83;21030;-83
2022/06/17 03:53:29;;;;;;;12.70;11.40;;;;;;;15.06;90.03;96944.60;1704589;83;21417;-82
2022/06/17 03:55:59;;;;;;;17.27;13.68;;;;;;;15.03;89.64;96945.00;1716918;83;20953;-82
2022/06/17 03:58:25;;;;;;;14.80;11.93;;;;;;;14.95;89.53;96948.08;1716537;83;21011;-82
2022/06/17 04:00:56;;;;;;;14.87;12.20;;;;;;;14.94;89.69;96945.66;1728411;82;21034;-82
2022/06/17 04:03:32;;;;;;;15.35;12.23;;;;;;;14.95;89.92;96938.92;1705511;82;21049;-82
2022/06/17 04:06:04;;;;;;;16.40;14.65;;;;;;;14.94;89.77;96933.38;1704622;84;20986;-82
2022/06/17 04:08:30;;;;;;;15.30;13.70;;;;;;;14.95;89.83;96929.76;1706050;82;21001;-82
2022/06/17 04:10:56;;;;;;;18.12;16.00;;;;;;;14.95;89.95;96935.49;1713783;83;20977;-82
2022/06/17 04:13:25;;;;;;;17.67;15.85;;;;;;;14.94;89.92;96932.07;1728515;82;20933;-82
2022/06/17 04:16:08;;;;;;;19.67;16.10;;;;;;;14.91;89.72;96932.97;1712809;82;20994;-82
2022/06/17 04:18:35;;;;;;;18.23;15.98;;;;;;;14.94;90.15;96941.23;1694842;83;21390;-83
2022/06/17 04:21:00;;;;;;;20.37;17.30;;;;;;;14.90;89.97;96945.75;1712336;83;21383;-82
2022/06/17 04:23:31;;;;;;;18.45;16.50;;;;;;;14.89;89.93;96957.22;1674790;84;21102;-82
2022/06/17 04:26:08;;;;;;;17.80;16.00;;;;;;;14.84;89.58;96963.04;1704523;83;21063;-83
2022/06/17 04:28:44;;;;;;;17.10;15.40;;;;;;;14.81;89.71;96958.20;1674463;84;21398;-82
2022/06/17 04:31:17;;;;;;;18.37;15.63;;;;;;;14.84;90.00;96964.34;1704359;83;20987;-83
2022/06/17 04:34:06;;;;;;;17.27;14.00;;;;;;;14.91;90.06;96963.86;1678507;84;21362;-82
2022/06/17 04:36:52;;;;;;;18.40;16.50;;;;;;;14.93;89.95;96961.86;1689286;83;21012;-82
2022/06/17 04:39:41;;;;;;;18.60;16.67;;;;;;;14.97;89.72;96963.61;1715783;83;21458;-82
2022/06/17 04:42:13;;;;;;;18.65;16.65;;;;;;;15.02;89.96;96962.52;1687643;83;20975;-82
2022/06/17 04:44:40;;;;;;;18.92;17.00;;;;;;;15.02;89.79;96961.20;1715669;83;21305;-82
2022/06/17 04:47:14;;;;;;;20.17;17.55;;;;;;;14.98;89.90;96975.69;1705843;83;21048;-82
2022/06/17 04:49:56;;;;;;;19.00;17.12;;;;;;;14.98;90.08;96977.80;1716452;83;21075;-82
2022/06/17 04:52:34;;;;;;;;;;;;;;;14.96;89.84;96985.02;1700277;82;21012;-82
2022/06/17 04:54:59;;;;;;;19.02;17.07;;;;;;;14.95;89.68;96983.91;1709087;82;20133;-82
2022/06/17 04:57:27;;;;;;;20.12;17.60;;;;;;;14.96;89.97;96994.17;1721202;82;20990;-82
2022/06/17 04:59:55;;;;;;;19.02;17.05;;;;;;;14.96;89.97;96994.17;1708306;83;21048;-82
2022/06/17 05:02:27;;;;;;;19.50;17.37;;;;;;;14.93;89.67;96993.25;1714602;81;21002;-82
2022/06/17 05:04:57;;;;;;;20.27;17.05;;;;;;;14.89;89.75;96999.89;1714749;83;21037;-81
2022/06/17 05:07:27;;;;;;;19.73;17.80;;;;;;;14.84;89.55;97000.98;1695072;81;21034;-83
2022/06/17 05:10:07;;;;;;;19.70;17.52;;;;;;;14.79;89.72;97003.34;1720036;82;21332;-83
2022/06/17 05:12:43;;;;;;;19.98;17.87;;;;;;;14.76;89.84;96999.81;1725251;82;20947;-81
2022/06/17 05:15:17;;;;;;;18.52;16.62;;;;;;;14.77;89.76;97006.66;1722022;82;21440;-82
2022/06/17 05:17:43;;;;;;;18.42;16.48;;;;;;;14.73;89.60;97008.55;1710266;83;21022;-82
2022/06/17 05:20:14;;;;;;;19.20;17.20;;;;;;;14.74;90.00;97014.09;1701045;82;21436;-82
2022/06/17 05:23:00;;;;;;;19.77;17.77;;;;;;;14.73;89.90;97014.59;1690447;83;20994;-81
2022/06/17 05:25:30;;;;;;;19.30;17.37;;;;;;;14.68;89.66;97009.94;1693159;83;21412;-82
2022/06/17 05:27:55;;;;;;;19.20;17.30;;;;;;;14.64;89.33;97013.11;1687637;82;20966;-82
2022/06/17 05:30:21;;;;;;;20.55;18.52;;;;;;;14.57;89.59;97017.50;1695333;83;21026;-82
2022/06/17 05:32:50;;;;;;;19.37;17.40;;;;;;;14.49;89.91;97022.89;1665575;84;20958;-82
2022/06/17 05:35:16;;;;;;;21.23;17.80;;;;;;;14.44;90.07;97029.16;1699540;83;21025;-82
2022/06/17 05:37:42;;;;;;;19.77;17.98;;;;;;;14.44;90.14;97029.16;1707353;83;21444;-82
2022/06/17 05:40:08;;;;;;;20.97;18.82;;;;;;;14.42;90.06;97031.94;1710359;83;20994;-82
2022/06/17 05:42:36;;;;;;;20.85;18.25;;;;;;;14.42;90.17;97024.91;1708467;83;20970;-82
2022/06/17 05:45:02;;;;;;;19.92;17.82;;;;;;;14.41;90.21;97032.94;1717269;83;21424;-82
2022/06/17 05:47:28;;;;;;;20.82;18.67;;;;;;;14.40;90.47;97030.83;1714227;83;20958;-82
2022/06/17 05:49:54;;;;;;;18.57;16.80;;;;;;;14.36;90.27;97037.44;1709817;82;21026;-82
2022/06/17 05:52:19;;;;;;;19.85;17.85;;;;;;;14.30;90.35;97036.87;1695253;83;20982;-82
2022/06/17 05:54:46;;;;;;;19.27;17.48;;;;;;;14.28;90.37;97035.45;1706850;83;20938;-82
2022/06/17 05:57:12;;;;;;;18.73;17.07;;;;;;;14.28;90.31;97043.29;1706795;83;21095;-82
2022/06/17 05:59:38;;;;;;;18.02;16.12;;;;;;;14.29;90.37;97039.67;1706872;83;21824;-82
2022/06/17 06:02:04;;;;;;;18.42;16.48;;;;;;;14.29;90.39;97040.48;1700891;83;21030;-82
2022/06/17 06:04:31;;;;;;;18.80;17.12;;;;;;;14.34;90.71;97045.17;1707236;83;21045;-82
2022/06/17 06:06:58;;;;;;;18.62;16.90;;;;;;;14.38;90.56;97053.74;1673661;84;21062;-83
2022/06/17 06:09:25;;;;;;;17.10;15.70;;;;;;;14.44;90.79;97054.00;1700084;83;20965;-82
2022/06/17 06:11:51;;;;;;;15.98;14.53;;;;;;;14.45;89.76;97062.16;1673736;84;21020;-82
2022/06/17 06:14:17;;;;;;;17.30;15.68;;;;;;;14.44;89.80;97058.73;1703849;83;21360;-83
2022/06/17 06:16:43;;;;;;;17.73;16.00;;;;;;;14.45;89.55;97066.89;1670509;84;20986;-81
2022/06/17 06:19:09;;;;;;;17.05;15.30;;;;;;;14.45;89.56;97059.55;1700677;83;20969;-83
2022/06/17 06:21:35;;;;;;;16.65;15.30;;;;;;;14.50;89.78;97060.61;1662403;84;21075;-83
2022/06/17 06:24:01;;;;;;;19.42;17.57;;;;;;;14.57;89.76;97053.61;1679766;84;21023;-83
2022/06/17 06:26:27;;;;;;;17.48;15.85;;;;;;;14.62;89.99;97060.38;1683806;84;21023;-83
2022/06/17 06:28:52;;;;;;;19.77;17.82;;;;;;;14.75;90.23;97053.63;1679898;84;21066;-83
2022/06/17 06:31:32;;;;;;;17.87;16.27;;;;;;;14.87;90.41;97060.77;1673656;84;21007;-83
2022/06/17 06:33:58;;;;;;;17.60;15.78;;;;;;;14.99;90.43;97060.54;1694847;83;21026;-82
2022/06/17 06:36:24;;;;;;;16.25;14.87;;;;;;;15.08;90.12;97065.60;1686880;83;20955;-83
2022/06/17 06:38:49;;;;;;;17.23;15.55;;;;;;;15.23;89.40;97067.59;1704596;83;21002;-82
2022/06/17 06:41:17;;;;;;;17.98;16.27;;;;;;;15.33;89.37;97064.13;1702476;83;21003;-83
2022/06/17 06:43:43;;;;;;;16.60;14.90;;;;;;;15.46;89.46;97062.08;1709915;83;21005;-83
2022/06/17 06:46:12;;;;;;;15.75;14.15;;;;;;;15.53;89.78;97061.59;1677271;83;20944;-82
2022/06/17 06:48:37;;;;;;;13.98;12.78;;;;;;;15.66;89.46;97076.58;1667717;84;21003;-82
2022/06/17 06:51:03;;;;;;;17.23;13.15;;;;;;;15.72;88.12;97073.16;1694758;83;21019;-82
2022/06/17 06:53:29;;;;;;;14.05;12.65;;;;;;;15.77;87.59;97072.06;1722285;83;21015;-84
2022/06/17 06:55:55;;;;;;;14.47;13.10;;;;;;;15.83;87.08;97063.43;1710918;82;21335;-82
2022/06/17 06:58:23;;;;;;;12.68;11.40;;;;;;;15.94;87.03;97064.64;1713104;81;20911;-83
2022/06/17 07:00:51;;;;;;;12.25;11.28;;;;;;;15.97;86.22;97078.19;1682761;82;21353;-83
2022/06/17 07:03:17;;;;;;;15.58;12.70;;;;;;;16.02;86.83;97071.03;1703570;82;21457;-83
2022/06/17 07:05:50;;;;;;;12.95;11.65;;;;;;;15.98;86.52;97077.68;1704260;82;21012;-83
2022/06/17 07:08:20;;;;;;;11.95;10.93;;;;;;;16.05;85.65;97075.36;1708445;82;21027;-83
2022/06/17 07:10:46;;;;;;;12.20;11.08;;;;;;;16.07;85.31;97068.10;1710090;82;20975;-84
2022/06/17 07:13:12;;;;;;;11.55;10.23;;;;;;;16.13;85.25;97072.56;1703292;82;20996;-84
2022/06/17 07:15:40;;;;;;;10.82;9.83;;;;;;;16.18;84.88;97064.91;1685563;82;21001;-84
2022/06/17 07:18:16;;;;;;;11.85;9.93;;;;;;;16.18;84.45;97079.33;1684311;83;21029;-83
2022/06/17 07:20:45;;;;;;;11.25;10.15;;;;;;;16.20;83.99;97068.13;1702705;81;21121;-84
2022/06/17 07:23:15;;;;;;;11.22;10.03;;;;;;;16.26;84.09;97067.82;1709695;82;20971;-84
2022/06/17 07:25:41;;;;;;;11.83;10.25;;;;;;;16.31;84.29;97073.80;1687041;82;20991;-84
2022/06/17 07:28:07;;;;;;;9.73;8.78;;;;;;;16.31;83.32;97073.80;1704910;82;21409;-84
2022/06/17 07:30:33;;;;;;;9.63;8.73;;;;;;;16.29;83.48;97075.31;1704917;82;20927;-84
2022/06/17 07:32:59;;;;;;;8.40;7.67;;;;;;;16.34;83.40;97075.50;1707834;82;20979;-84
2022/06/17 07:35:25;;;;;;;7.65;6.95;;;;;;;16.37;82.01;97076.41;1705225;82;21159;-84
2022/06/17 07:40:35;;;;;;;7.85;6.45;;;;;;;16.55;82.00;97073.19;1707045;82;20999;-84
2022/06/17 07:43:01;;;;;;;9.65;8.53;;;;;;;16.62;81.57;97075.31;1712033;83;21427;-84
2022/06/17 07:45:27;;;;;;;9.93;8.53;;;;;;;16.63;81.42;97072.19;1705548;83;20995;-84
2022/06/17 07:47:54;;;;;;;8.18;7.37;;;;;;;16.73;81.28;97073.91;1687734;82;21081;-85
2022/06/17 07:50:25;;;;;;;9.38;8.08;;;;;;;16.83;80.80;97073.00;1699978;82;21106;-84
2022/06/17 07:52:51;;;;;;;9.00;8.10;;;;;;;16.91;80.49;97073.28;1663564;84;20964;-84
2022/06/17 07:55:17;;;;;;;8.73;7.92;;;;;;;17.00;79.73;97069.44;1706599;83;21330;-83
2022/06/17 07:57:43;;;;;;;8.15;7.33;;;;;;;17.15;80.40;97064.76;1705317;83;20935;-84
2022/06/17 08:00:22;;;;;;;6.67;6.08;;;;;;;17.15;79.56;97064.76;1670314;84;21026;-84
2022/06/17 08:02:48;;;;;;;9.33;7.12;;;;;;;17.10;79.12;97080.33;1700368;84;20951;-84
2022/06/17 08:05:14;;;;;;;8.83;6.67;;;;;;;16.96;78.99;97087.93;1700400;84;21014;-84
2022/06/17 08:07:40;;;;;;;8.33;5.72;;;;;;;16.92;79.90;97080.98;1675740;84;21425;-84
2022/06/17 08:10:06;;;;;;;6.80;5.60;;;;;;;16.89;78.93;97085.80;1700246;84;20978;-84
2022/06/17 08:12:31;;;;;;;8.05;5.42;;;;;;;17.00;77.88;97082.05;1694144;84;21012;-82
2022/06/17 08:14:57;;;;;;;6.58;4.58;;;;;;;17.16;77.93;97080.00;1699872;84;21042;-82
2022/06/17 08:17:23;;;;;;;6.28;5.53;;;;;;;17.32;75.33;97081.67;1685677;85;21356;-82
2022/06/17 08:19:51;;;;;;;7.67;5.67;;;;;;;17.47;75.58;97058.29;1684563;84;21055;-82
2022/06/17 08:22:18;;;;;;;7.83;5.37;;;;;;;17.69;75.49;97064.38;1690601;83;21016;-82
2022/06/17 08:24:44;;;;;;;4.92;4.40;;;;;;;17.82;74.87;97067.45;1699623;83;20975;-82
2022/06/17 08:27:10;;;;;;;5.83;4.08;;;;;;;17.70;73.98;97069.12;1670233;85;20968;-82
2022/06/17 08:29:36;;;;;;;5.42;4.42;;;;;;;17.67;75.10;97073.45;1670194;85;21265;-82
2022/06/17 08:34:46;;;;;;;6.12;4.53;;;;;;;17.91;74.00;97079.85;1670065;85;21446;-82
2022/06/17 08:37:12;;;;;;;6.17;4.72;;;;;;;17.88;73.85;97094.20;1670343;84;21028;-82
2022/06/17 08:39:38;;;;;;;5.12;3.98;;;;;;;17.97;73.56;97093.45;1714164;83;21012;-82
2022/06/17 08:42:37;;;;;;;7.17;4.78;;;;;;;18.25;72.09;97094.41;1699720;83;21412;-82
2022/06/17 08:45:44;;;;;;;5.47;4.60;;;;;;;18.48;72.91;97097.78;1714273;83;21027;-82
2022/06/17 08:48:52;;;;;;;7.55;6.08;;;;;;;18.45;72.76;97095.07;1700794;83;21059;-82
2022/06/17 08:51:48;;;;;;;7.40;5.97;;;;;;;18.34;71.03;97106.27;1726776;82;21142;-82
2022/06/17 08:54:25;;;;;;;6.15;5.50;;;;;;;18.23;71.47;97112.23;1695688;81;21051;-81
2022/06/17 08:57:11;;;;;;;6.17;5.45;;;;;;;18.12;71.63;97111.58;1752631;81;21035;-83
2022/06/17 08:59:51;;;;;;;8.33;6.12;;;;;;;18.00;72.14;97122.77;1753685;80;21021;-83
2022/06/17 09:02:35;;;;;;;8.00;6.15;;;;;;;17.84;71.36;97119.30;1694086;81;21003;-83
2022/06/17 09:05:43;;;;;;;7.50;6.42;;;;;;;17.84;71.14;97129.01;1719606;80;20995;-83
2022/06/17 09:08:43;;;;;;;7.45;6.75;;;;;;;17.83;72.48;97128.20;1742224;80;20951;-82
2022/06/17 09:11:46;;;;;;;7.28;6.40;;;;;;;18.12;71.99;97126.05;1720943;81;20990;-82
2022/06/17 09:14:24;;;;;;;7.10;6.05;;;;;;;18.35;71.21;97139.96;1746523;80;20984;-82
2022/06/17 09:17:07;;;;;;;5.78;5.15;;;;;;;18.29;70.80;97137.17;1750493;80;21030;-82
2022/06/17 09:19:35;;;;;;;7.25;5.80;;;;;;;18.21;71.30;97140.55;1761742;81;21333;-82
2022/06/17 09:22:10;;;;;;;5.58;5.00;;;;;;;18.25;70.54;97149.66;1740695;81;21003;-82
2022/06/17 09:24:41;;;;;;;7.10;5.25;;;;;;;18.21;69.99;97147.92;1739100;81;21035;-83
2022/06/17 09:27:20;;;;;;;6.45;4.40;;;;;;;18.08;69.77;97145.39;1738929;82;21002;-83
2022/06/17 09:29:57;;;;;;;7.62;5.05;;;;;;;17.92;70.07;97145.37;1738990;82;21421;-83
2022/06/17 09:32:39;;;;;;;7.22;5.30;;;;;;;17.85;70.84;97156.40;1753972;81;20961;-83
2022/06/17 09:35:39;;;;;;;6.50;5.65;;;;;;;17.94;71.38;97161.73;1739500;81;20955;-82
2022/06/17 09:38:26;;;;;;;6.85;6.17;;;;;;;17.97;71.43;97160.00;1757970;80;21459;-82
2022/06/17 09:40:59;;;;;;;7.58;6.95;;;;;;;17.85;69.50;97167.42;1738612;81;20999;-82
2022/06/17 09:43:34;;;;;;;9.10;8.28;;;;;;;17.75;69.87;97181.02;1738607;80;20970;-82
2022/06/17 09:46:20;;;;;;;9.75;8.75;;;;;;;17.80;70.41;97173.31;1738965;82;21066;-82
2022/06/17 09:48:58;;;;;;;10.48;9.40;;;;;;;17.97;71.32;97165.25;1749501;80;21423;-82
2022/06/17 09:51:56;;;;;;;8.60;7.80;;;;;;;18.01;70.98;97161.70;1746688;81;21045;-82
2022/06/17 09:54:33;;;;;;;8.00;7.20;;;;;;;17.97;71.29;97168.39;1744306;82;21023;-84
2022/06/17 09:57:23;;;;;;;7.92;7.12;;;;;;;17.92;71.67;97161.14;1751918;80;21343;-82
2022/06/17 09:59:59;;;;;;;9.58;8.10;;;;;;;17.97;72.78;97161.31;1755807;82;21080;-83
2022/06/17 10:02:48;;;;;;;9.50;8.60;;;;;;;18.06;71.37;97157.95;1750809;80;21355;-82
2022/06/17 10:05:19;;;;;;;9.08;8.23;;;;;;;18.05;70.90;97154.19;1741062;82;21083;-82
2022/06/17 10:08:11;;;;;;;8.78;7.33;;;;;;;17.97;70.93;97162.62;1737341;82;20959;-82
2022/06/17 10:10:57;;;;;;;7.17;6.47;;;;;;;17.99;71.11;97167.16;1745005;82;21011;-82
2022/06/17 10:13:37;;;;;;;6.67;6.00;;;;;;;18.03;71.36;97161.48;1753778;82;21070;-82
2022/06/17 10:19:13;;;;;;;8.78;6.33;;;;;;;17.79;70.57;97168.27;1746341;82;21453;-82
2022/06/17 10:21:59;;;;;;;7.00;6.40;;;;;;;17.66;71.60;97180.40;1738178;82;21098;-83
2022/06/17 10:25:03;;;;;;;8.08;7.37;;;;;;;17.55;73.12;97178.91;1742591;82;21576;-83
2022/06/17 10:27:51;;;;;;;9.78;8.15;;;;;;;17.39;72.14;97184.90;1748276;82;20967;-82
2022/06/17 10:30:25;;;;;;;8.00;7.20;;;;;;;17.30;71.81;97182.71;1750776;82;21358;-83
2022/06/17 10:32:51;;;;;;;8.60;7.08;;;;;;;17.30;72.86;97197.96;1742824;82;21412;-83
2022/06/17 10:35:30;;;;;;;9.40;6.42;;;;;;;17.33;72.87;97195.43;1746658;82;20986;-83
2022/06/17 10:37:58;;;;;;;7.58;6.17;;;;;;;17.38;73.74;97189.05;1738573;81;21433;-84
2022/06/17 10:40:25;;;;;;;7.92;7.15;;;;;;;17.55;74.11;97195.48;1741562;82;20952;-83
2022/06/17 10:42:51;;;;;;;7.85;7.05;;;;;;;17.88;72.57;97188.84;1749416;82;20955;-83
2022/06/17 10:45:17;;;;;;;8.08;6.25;;;;;;;18.26;73.89;97180.20;1733628;81;21011;-83
2022/06/17 10:47:51;;;;;;;7.67;6.97;;;;;;;18.57;71.88;97188.11;1752283;80;20967;-83
2022/06/17 10:50:24;;;;;;;10.35;8.48;;;;;;;18.79;69.42;97186.47;1755041;81;21031;-84
2022/06/17 10:53:24;;;;;;;13.25;10.88;;;;;;;18.99;70.39;97180.53;1714361;81;21052;-83
2022/06/17 10:55:55;;;;;;;7.72;6.45;;;;;;;19.26;68.80;97178.99;1717869;81;20947;-84
2022/06/17 10:58:24;;;;;;;7.85;6.97;;;;;;;19.37;68.65;97174.34;1709966;81;21023;-84
2022/06/17 11:01:07;;;;;;;7.70;7.00;;;;;;;19.26;69.30;97174.53;1723601;81;21021;-83
2022/06/17 11:03:36;;;;;;;7.37;6.67;;;;;;;19.07;67.68;97176.84;1723116;81;20933;-84
2022/06/17 11:06:13;;;;;;;8.28;7.45;;;;;;;18.86;68.23;97185.38;1729416;81;20979;-84
2022/06/17 11:08:55;;;;;;;8.03;7.17;;;;;;;18.70;68.47;97183.78;1725832;81;20977;-84
2022/06/17 11:12:13;;;;;;;8.30;7.20;;;;;;;18.49;68.07;97176.50;1717102;81;21300;-84
2022/06/17 11:14:47;;;;;;;8.50;6.78;;;;;;;18.27;67.54;97181.30;1718590;81;20973;-84
2022/06/17 11:17:22;;;;;;;6.90;6.30;;;;;;;18.13;68.74;97184.20;1724956;81;20989;-84
2022/06/17 11:19:50;;;;;;;9.40;8.50;;;;;;;18.06;70.72;97187.36;1733278;81;20937;-84
2022/06/17 11:22:35;;;;;;;9.00;8.10;;;;;;;18.09;70.74;97182.50;1727792;81;20996;-84
2022/06/17 11:25:10;;;;;;;9.18;7.00;;;;;;;18.27;71.19;97179.98;1695135;83;21029;-84
2022/06/17 11:27:43;;;;;;;7.60;6.90;;;;;;;18.59;69.79;97176.86;1723352;83;21002;-84
2022/06/17 11:30:23;;;;;;;7.20;5.40;;;;;;;18.86;70.36;97174.05;1724258;83;21405;-83
2022/06/17 11:32:49;;;;;;;5.85;5.17;;;;;;;18.86;68.57;97180.63;1734626;83;21046;-84
2022/06/17 11:35:20;;;;;;;5.35;4.85;;;;;;;18.81;68.77;97176.02;1722545;81;21046;-84
2022/06/17 11:37:47;;;;;;;4.87;4.20;;;;;;;18.80;68.81;97188.08;1688364;82;21011;-84
2022/06/17 11:40:24;;;;;;;5.45;3.80;;;;;;;18.75;67.32;97183.47;1730831;83;21524;-84
2022/06/17 11:43:03;;;;;;;5.35;2.87;;;;;;;18.73;66.53;97185.50;1724209;81;20966;-84
2022/06/17 11:45:39;;;;;;;3.10;2.75;;;;;;;18.65;66.05;97184.44;1742280;80;21432;-84
2022/06/17 11:48:12;;;;;;;3.27;2.62;;;;;;;18.53;65.76;97186.90;1670858;84;21015;-84
2022/06/17 11:50:43;;;;;;;5.75;2.85;;;;;;;18.79;65.70;97192.54;1707854;81;21351;-84
2022/06/17 11:53:16;;;;;;;4.25;2.40;;;;;;;19.13;64.87;97191.25;1701469;84;21428;-84
2022/06/17 11:55:45;;;;;;;4.20;2.70;;;;;;;19.50;64.30;97186.84;1673994;85;21414;-83
2022/06/17 11:58:12;;;;;;;3.65;2.70;;;;;;;19.67;64.00;97191.06;1704434;84;21349;-85
2022/06/17 12:00:53;;;;;;;3.05;2.15;;;;;;;19.94;65.03;97177.58;1694193;84;20999;-84
2022/06/17 12:03:33;;;;;;;3.20;2.00;;;;;;;20.03;63.98;97173.63;1707837;82;20975;-85
2022/06/17 12:06:05;;;;;;;3.52;2.02;;;;;;;20.16;63.26;97177.91;1705222;84;21026;-84
2022/06/17 12:08:43;;;;;;;1.87;1.60;;;;;;;20.32;62.99;97183.38;1703826;84;21070;-84